Time;durP1;ratioP1;P1;durP2;ratioP2;P2;SDS_P1;SDS_P2;PMS_P1;PMS_P2;Temp;Humidity;BMP_temperature;BMP_pressure;BME280_temperature;BME280_humidity;BME280_pressure;Samples;Min_cycle;Max_cycle;Signal;HPM_P1;HPM_P2
2021/01/27 00:00:22;;;;;;;5.00;2.55;;;;;;;1.77;67.91;100338.03;4997948;28;20077;-75
2021/01/27 00:02:48;;;;;;;4.60;3.30;;;;;;;1.78;67.34;100352.94;4999080;28;20057;-75
2021/01/27 00:05:19;;;;;;;4.47;2.97;;;;;;;1.84;67.71;100346.66;4999167;28;20058;-75
2021/01/27 00:07:46;;;;;;;7.00;3.10;;;;;;;1.76;67.75;100345.06;4999180;28;20062;-75
2021/01/27 00:10:13;;;;;;;7.07;3.20;;;;;;;1.76;68.08;100331.03;4999186;28;20046;-75
2021/01/27 00:12:40;;;;;;;4.97;3.00;;;;;;;1.80;68.38;100324.78;4998823;28;20058;-75
2021/01/27 00:15:30;;;;;;;7.28;3.53;;;;;;;1.80;67.65;100326.59;4998825;28;20061;-76
2021/01/27 00:17:58;;;;;;;6.20;3.40;;;;;;;1.58;67.99;100291.06;4996190;28;20057;-75
2021/01/27 00:20:26;;;;;;;6.90;3.20;;;;;;;1.73;68.68;100312.69;4997346;28;20447;-75
2021/01/27 00:22:56;;;;;;;6.13;3.15;;;;;;;1.76;68.36;100318.75;4998855;28;20053;-75
2021/01/27 00:25:26;;;;;;;8.70;3.42;;;;;;;1.81;68.04;100312.50;4998339;28;20101;-75
2021/01/27 00:27:52;;;;;;;4.15;3.03;;;;;;;1.84;69.05;100315.06;4998589;28;20455;-76
2021/01/27 00:30:20;;;;;;;6.60;2.88;;;;;;;1.85;68.35;100308.94;4998310;28;20058;-75
2021/01/27 00:32:47;;;;;;;4.60;2.92;;;;;;;1.81;68.08;100309.88;4998489;28;20086;-76
2021/01/27 00:35:16;;;;;;;8.02;3.20;;;;;;;1.81;68.38;100296.72;4997556;28;20046;-75
2021/01/27 00:37:42;;;;;;;5.78;2.88;;;;;;;1.79;68.79;100290.63;4997723;28;20058;-75
2021/01/27 00:40:09;;;;;;;4.78;3.25;;;;;;;1.81;68.55;100278.31;4998248;28;20494;-75
2021/01/27 00:42:35;;;;;;;5.03;3.10;;;;;;;1.82;68.89;100280.03;4998641;28;20101;-75
2021/01/27 00:45:04;;;;;;;6.65;3.10;;;;;;;1.83;68.83;100279.13;4981683;28;20058;-75
2021/01/27 00:47:30;;;;;;;8.52;3.08;;;;;;;1.83;68.10;100281.75;4997937;28;20062;-74
2021/01/27 00:49:56;;;;;;;4.47;3.10;;;;;;;1.80;67.96;100280.06;4998684;28;20050;-75
2021/01/27 00:52:23;;;;;;;5.47;2.75;;;;;;;1.89;67.80;100295.66;4981268;28;20050;-76
2021/01/27 00:54:49;;;;;;;8.02;3.67;;;;;;;1.76;67.82;100281.03;4998025;28;20050;-75
2021/01/27 00:57:15;;;;;;;6.65;2.85;;;;;;;1.89;68.96;100315.84;4998110;28;20057;-75
2021/01/27 00:59:41;;;;;;;5.22;2.70;;;;;;;1.87;68.01;100326.38;4998204;28;20058;-76
2021/01/27 01:02:08;;;;;;;8.57;2.85;;;;;;;1.88;67.14;100316.75;4996652;28;20356;-75
2021/01/27 01:04:34;;;;;;;5.20;3.00;;;;;;;1.87;67.92;100320.28;4998166;28;20129;-75
2021/01/27 01:07:00;;;;;;;6.80;2.92;;;;;;;1.90;67.52;100314.94;4998018;28;20046;-76
2021/01/27 01:09:27;;;;;;;6.20;2.90;;;;;;;1.87;67.80;100325.53;4997776;28;20058;-75
2021/01/27 01:11:55;;;;;;;6.30;2.70;;;;;;;1.87;68.13;100328.19;4996529;28;20050;-75
2021/01/27 01:14:22;;;;;;;4.57;2.95;;;;;;;1.86;69.22;100332.56;4997896;28;20061;-75
2021/01/27 01:16:48;;;;;;;5.78;2.42;;;;;;;1.84;70.13;100342.25;4997829;28;20093;-76
2021/01/27 01:19:14;;;;;;;5.78;3.40;;;;;;;1.73;72.02;100339.88;4997878;28;20047;-75
2021/01/27 01:21:41;;;;;;;7.25;2.92;;;;;;;1.66;73.00;100338.28;4996412;28;20097;-75
2021/01/27 01:24:08;;;;;;;7.53;3.38;;;;;;;1.58;73.92;100341.06;4997649;28;20062;-75
2021/01/27 01:26:34;;;;;;;6.38;3.33;;;;;;;1.56;75.80;100353.38;4997400;28;20046;-76
2021/01/27 01:29:01;;;;;;;6.03;2.58;;;;;;;1.41;77.45;100328.25;4997089;28;20054;-74
2021/01/27 01:31:27;;;;;;;6.47;3.75;;;;;;;1.31;78.67;100326.72;4996289;28;20433;-75
2021/01/27 01:33:54;;;;;;;5.90;3.38;;;;;;;1.25;80.05;100318.94;4997640;28;20054;-75
2021/01/27 01:36:20;;;;;;;5.25;3.13;;;;;;;1.07;81.62;100315.78;4996477;28;20050;-74
2021/01/27 01:38:47;;;;;;;6.57;3.35;;;;;;;1.07;82.14;100315.78;4997191;28;20054;-75
2021/01/27 01:41:13;;;;;;;9.85;3.03;;;;;;;1.00;83.42;100330.81;4997602;28;20054;-75
2021/01/27 01:43:40;;;;;;;6.70;3.33;;;;;;;0.98;83.37;100323.84;4998342;28;20133;-75
2021/01/27 01:46:15;;;;;;;5.15;3.75;;;;;;;0.84;84.65;100316.19;4999692;28;20070;-76
2021/01/27 01:48:49;;;;;;;4.80;3.10;;;;;;;0.82;85.39;100313.63;4998815;28;20073;-76
2021/01/27 01:51:39;;;;;;;7.70;4.05;;;;;;;0.83;85.44;100317.09;4997430;28;20054;-75
2021/01/27 01:54:18;;;;;;;7.20;2.90;;;;;;;0.83;85.50;100306.59;4995796;28;20083;-74
2021/01/27 01:56:58;;;;;;;5.88;3.10;;;;;;;0.85;85.97;100299.53;4997593;28;20054;-74
2021/01/27 01:59:27;;;;;;;6.80;3.03;;;;;;;0.85;85.90;100289.00;4997735;28;20047;-75
2021/01/27 02:01:59;;;;;;;6.68;3.20;;;;;;;0.84;85.39;100276.78;4997333;28;20160;-75
2021/01/27 02:04:31;;;;;;;7.25;3.10;;;;;;;0.85;85.76;100276.75;4999325;28;20124;-74
2021/01/27 02:06:58;;;;;;;7.05;3.40;;;;;;;0.75;85.52;100264.69;4998454;28;20057;-74
2021/01/27 02:09:24;;;;;;;7.50;3.65;;;;;;;0.86;85.81;100256.63;4995817;28;20050;-75
2021/01/27 02:12:12;;;;;;;5.45;3.40;;;;;;;0.86;85.11;100244.31;4995690;28;20042;-77
2021/01/27 02:14:59;;;;;;;6.22;3.50;;;;;;;0.85;85.38;100228.59;4996798;28;20460;-74
2021/01/27 02:17:45;;;;;;;8.45;3.15;;;;;;;0.84;85.61;100226.84;4996669;28;20054;-75
2021/01/27 02:20:48;;;;;;;5.53;3.33;;;;;;;0.77;85.67;100215.63;4995725;28;20055;-75
2021/01/27 02:23:37;;;;;;;6.00;3.20;;;;;;;0.81;85.26;100201.50;4995032;28;20062;-76
2021/01/27 02:26:40;;;;;;;5.38;3.17;;;;;;;0.88;84.64;100189.97;4996555;28;20116;-75
2021/01/27 02:29:44;;;;;;;7.47;3.28;;;;;;;0.83;84.95;100173.47;4996177;28;20054;-75
2021/01/27 02:32:29;;;;;;;4.72;3.28;;;;;;;0.82;84.58;100176.97;4995182;28;20062;-75
2021/01/27 02:35:05;;;;;;;5.97;3.20;;;;;;;0.80;84.97;100168.25;4996482;28;20095;-75
2021/01/27 02:37:37;;;;;;;4.53;2.97;;;;;;;0.86;85.02;100157.59;4996148;28;20097;-75
2021/01/27 02:40:13;;;;;;;5.47;3.15;;;;;;;0.81;85.41;100148.94;4996036;28;20070;-74
2021/01/27 02:42:44;;;;;;;5.43;2.90;;;;;;;0.85;84.85;100150.63;4996195;28;20047;-74
2021/01/27 02:45:40;;;;;;;;;;;;;;;0.92;84.31;100141.72;4996484;28;20050;-74
2021/01/27 02:48:22;;;;;;;6.75;2.67;;;;;;;0.94;84.25;100125.94;4991556;28;19926;-75
2021/01/27 02:50:55;;;;;;;4.47;2.60;;;;;;;0.96;84.51;100126.75;4995959;28;20050;-73
2021/01/27 02:53:27;;;;;;;4.43;2.38;;;;;;;0.90;84.48;100116.38;4979088;28;20058;-74
2021/01/27 02:56:15;;;;;;;4.32;2.28;;;;;;;0.92;84.57;100112.81;4996034;28;20057;-78
2021/01/27 02:58:56;;;;;;;4.60;2.38;;;;;;;0.91;84.76;100097.94;4995247;28;20129;-78
2021/01/27 03:01:40;;;;;;;5.50;2.42;;;;;;;0.90;84.50;100098.84;4996223;28;20093;-75
2021/01/27 03:04:36;;;;;;;4.78;2.08;;;;;;;0.91;84.32;100097.94;4996438;28;20058;-73
2021/01/27 03:07:03;;;;;;;3.10;1.95;;;;;;;0.94;84.74;100100.50;4995140;28;20363;-75
2021/01/27 03:09:42;;;;;;;4.18;2.00;;;;;;;0.94;83.98;100089.97;4995910;28;20097;-74
2021/01/27 03:12:09;;;;;;;2.45;1.80;;;;;;;0.94;83.74;100060.22;4995096;28;20069;-78
2021/01/27 03:14:36;;;;;;;5.03;2.25;;;;;;;0.97;83.74;100070.66;4995815;28;20357;-77
2021/01/27 03:17:10;;;;;;;6.07;1.80;;;;;;;0.98;83.16;100051.34;4978809;28;20058;-75
2021/01/27 03:20:04;;;;;;;2.30;1.67;;;;;;;1.01;83.37;100055.69;4996587;28;20078;-77
2021/01/27 03:22:42;;;;;;;4.38;1.83;;;;;;;0.88;82.91;100029.66;4995659;28;20050;-75
2021/01/27 03:25:15;;;;;;;8.90;2.50;;;;;;;1.06;82.09;100045.94;4996258;28;20050;-77
2021/01/27 03:27:55;;;;;;;4.32;1.42;;;;;;;1.08;82.26;100049.38;4997558;28;20061;-75
2021/01/27 03:30:21;;;;;;;3.35;1.92;;;;;;;1.11;81.85;100046.69;4995042;28;20077;-76
2021/01/27 03:32:59;;;;;;;3.22;1.95;;;;;;;1.01;81.62;100019.75;4994437;28;20451;-77
2021/01/27 03:35:37;;;;;;;3.05;1.45;;;;;;;1.21;81.03;100021.88;4995769;28;20054;-76
2021/01/27 03:38:43;;;;;;;3.28;2.17;;;;;;;1.26;81.36;100026.19;4994482;28;20062;-74
2021/01/27 03:41:37;;;;;;;3.97;1.83;;;;;;;1.30;80.51;100012.91;4990751;28;20109;-78
2021/01/27 03:44:20;;;;;;;2.70;1.50;;;;;;;1.24;80.30;99983.31;4994474;28;20352;-76
2021/01/27 03:46:59;;;;;;;2.78;1.80;;;;;;;1.33;79.29;99999.72;4994228;28;20389;-74
2021/01/27 03:49:35;;;;;;;3.15;1.50;;;;;;;1.21;80.60;99974.56;4995549;28;20050;-75
2021/01/27 03:52:17;;;;;;;3.67;1.70;;;;;;;1.32;80.06;100007.63;4994385;28;20054;-78
2021/01/27 03:54:52;;;;;;;3.30;1.60;;;;;;;1.35;79.30;100004.91;4995548;28;20065;-76
2021/01/27 03:57:24;;;;;;;1.83;1.40;;;;;;;1.37;79.77;100002.25;4995632;28;20059;-76
2021/01/27 03:59:50;;;;;;;1.50;1.35;;;;;;;1.44;79.30;99988.91;4994565;28;20348;-75
2021/01/27 04:02:20;;;;;;;1.73;1.20;;;;;;;1.44;78.91;99975.75;4994712;28;20054;-75
2021/01/27 04:04:48;;;;;;;2.05;1.50;;;;;;;1.47;78.56;99975.66;4995280;28;20065;-74
2021/01/27 04:07:15;;;;;;;1.63;1.02;;;;;;;1.44;78.63;99975.75;4995096;28;20054;-77
2021/01/27 04:09:42;;;;;;;1.52;1.25;;;;;;;1.51;78.70;99970.34;4996169;28;20047;-76
2021/01/27 04:12:10;;;;;;;2.17;1.20;;;;;;;1.47;78.56;99957.25;4997929;28;20396;-75
2021/01/27 04:14:36;;;;;;;5.63;1.00;;;;;;;1.45;78.24;99948.53;4999603;28;20109;-76
2021/01/27 04:17:24;;;;;;;1.60;1.10;;;;;;;1.49;78.81;99973.84;5004229;28;20050;-73
2021/01/27 04:19:50;;;;;;;1.63;1.15;;;;;;;1.49;78.63;99944.91;5001529;28;20046;-76
2021/01/27 04:22:16;;;;;;;1.45;1.00;;;;;;;1.46;78.32;99947.63;4998214;28;20058;-75
2021/01/27 04:24:44;;;;;;;4.03;1.00;;;;;;;1.43;78.45;99925.81;4997870;28;20050;-78
2021/01/27 04:27:11;;;;;;;1.98;1.05;;;;;;;1.46;78.02;99939.75;4999383;28;20105;-76
2021/01/27 04:29:38;;;;;;;1.23;0.98;;;;;;;1.48;78.99;99937.94;5001583;28;20072;-76
2021/01/27 04:32:04;;;;;;;2.05;1.20;;;;;;;1.51;78.57;99915.09;5001381;28;20058;-74
2021/01/27 04:34:30;;;;;;;1.23;1.00;;;;;;;1.49;78.91;99926.50;4998868;28;20133;-74
2021/01/27 04:36:58;;;;;;;2.35;0.95;;;;;;;1.51;78.78;99920.38;4999799;28;20054;-76
2021/01/27 04:39:24;;;;;;;1.42;1.08;;;;;;;1.49;79.09;99912.50;4998684;28;20046;-77
2021/01/27 04:41:53;;;;;;;1.23;0.90;;;;;;;1.42;79.52;99908.31;4999226;28;20050;-76
2021/01/27 04:44:20;;;;;;;1.92;1.00;;;;;;;1.52;78.97;99922.94;4997846;28;20050;-78
2021/01/27 04:46:59;;;;;;;1.88;0.80;;;;;;;1.57;78.75;99928.94;4998146;28;20372;-77
2021/01/27 04:49:31;;;;;;;0.73;0.63;;;;;;;1.53;78.95;99916.75;4998138;28;20140;-74
2021/01/27 04:52:17;;;;;;;3.03;0.90;;;;;;;1.58;79.29;99909.59;4998275;28;20062;-77
2021/01/27 04:54:59;;;;;;;1.17;0.85;;;;;;;1.54;79.30;99904.47;4998250;28;20089;-75
2021/01/27 04:57:47;;;;;;;0.80;0.80;;;;;;;1.43;80.80;99900.41;4998144;28;20459;-76
2021/01/27 05:00:27;;;;;;;1.83;0.88;;;;;;;1.38;81.56;99883.88;4998264;28;20061;-80
2021/01/27 05:03:05;;;;;;;0.90;0.70;;;;;;;1.34;82.29;99890.97;4998300;28;20050;-76
2021/01/27 05:05:35;;;;;;;1.25;0.90;;;;;;;1.26;83.05;99882.44;4998168;28;20080;-78
2021/01/27 05:08:10;;;;;;;2.13;0.63;;;;;;;1.19;83.84;99881.72;4997884;28;20054;-78
2021/01/27 05:11:05;;;;;;;2.35;0.70;;;;;;;1.19;84.06;99884.38;4997797;28;20050;-77
2021/01/27 05:13:38;;;;;;;2.85;1.00;;;;;;;1.20;84.10;99885.25;4997922;28;20050;-77
2021/01/27 05:16:10;;;;;;;1.48;0.90;;;;;;;1.20;83.54;99878.19;4997711;28;20061;-79
2021/01/27 05:18:37;;;;;;;1.73;0.85;;;;;;;1.09;83.28;99851.31;4996907;28;20058;-76
2021/01/27 05:21:14;;;;;;;1.20;0.82;;;;;;;1.24;83.54;99867.63;4996724;28;20054;-79
2021/01/27 05:23:40;;;;;;;0.70;0.70;;;;;;;1.18;83.54;99866.88;4997690;28;20054;-77
2021/01/27 05:26:13;;;;;;;1.33;0.88;;;;;;;1.24;82.96;99878.13;4996608;28;20051;-77
2021/01/27 05:28:47;;;;;;;1.40;1.30;;;;;;;1.30;83.45;99870.09;4997266;28;20057;-78
2021/01/27 05:31:13;;;;;;;0.70;0.70;;;;;;;1.37;82.88;99878.66;4997459;28;20054;-77
2021/01/27 05:33:51;;;;;;;1.42;0.82;;;;;;;1.33;82.47;99867.34;4997662;28;20085;-77
2021/01/27 05:36:24;;;;;;;0.82;0.80;;;;;;;1.35;82.32;99865.53;4997368;28;20132;-76
2021/01/27 05:38:51;;;;;;;1.45;0.85;;;;;;;1.38;82.08;99856.69;4997112;28;20050;-76
2021/01/27 05:41:24;;;;;;;0.75;0.73;;;;;;;1.35;82.08;99845.38;4997237;28;20453;-78
2021/01/27 05:43:54;;;;;;;1.42;0.90;;;;;;;1.42;82.32;99846.03;4997495;28;20133;-75
2021/01/27 05:46:26;;;;;;;0.82;0.75;;;;;;;1.46;81.90;99839.81;4996238;28;20046;-75
2021/01/27 05:48:54;;;;;;;1.40;0.73;;;;;;;1.43;82.05;99808.34;4996853;28;20093;-77
2021/01/27 05:51:32;;;;;;;3.08;1.33;;;;;;;1.43;82.27;99823.25;4997203;28;20105;-77
2021/01/27 05:54:00;;;;;;;0.77;0.75;;;;;;;1.41;83.46;99810.13;4998434;28;20417;-75
2021/01/27 05:56:30;;;;;;;2.92;0.70;;;;;;;1.40;83.10;99802.28;4997503;28;20046;-78
2021/01/27 05:59:23;;;;;;;1.93;0.87;;;;;;;1.34;84.30;99785.81;4997281;28;20432;-76
2021/01/27 06:01:52;;;;;;;1.77;0.77;;;;;;;1.34;85.20;99790.19;4998226;28;20042;-76
2021/01/27 06:04:28;;;;;;;1.80;0.77;;;;;;;1.28;85.16;99811.41;4997665;28;20062;-76
2021/01/27 06:06:55;;;;;;;4.00;0.93;;;;;;;1.26;86.01;99807.97;4997242;28;20054;-74
2021/01/27 06:09:42;;;;;;;3.05;0.90;;;;;;;1.12;86.81;99800.44;4996695;28;20046;-75
2021/01/27 06:12:13;;;;;;;2.58;1.13;;;;;;;1.16;86.98;99823.13;4999341;28;20178;-74
2021/01/27 06:14:40;;;;;;;1.33;1.00;;;;;;;1.12;87.68;99801.31;5004430;28;20138;-75
2021/01/27 06:17:23;;;;;;;1.48;1.27;;;;;;;1.19;87.39;99807.25;4996847;28;20050;-74
2021/01/27 06:20:16;;;;;;;1.33;1.00;;;;;;;1.13;88.00;99795.16;4996608;28;20042;-75
2021/01/27 06:22:46;;;;;;;1.95;1.00;;;;;;;1.17;87.63;99802.06;4989048;28;20158;-77
2021/01/27 06:25:22;;;;;;;1.20;1.08;;;;;;;1.13;88.04;99813.56;4995671;28;20061;-76
2021/01/27 06:28:25;;;;;;;1.20;1.00;;;;;;;1.14;87.70;99791.63;5001371;28;20126;-79
2021/01/27 06:31:39;;;;;;;2.67;1.40;;;;;;;1.15;87.87;99777.56;5002497;28;20046;-75
2021/01/27 06:34:14;;;;;;;2.17;1.33;;;;;;;1.18;87.82;99776.63;5009147;28;20049;-76
2021/01/27 06:37:00;;;;;;;1.48;1.10;;;;;;;1.19;87.17;99773.94;5015026;28;20058;-73
2021/01/27 06:40:06;;;;;;;4.13;1.15;;;;;;;1.15;87.27;99769.66;5001071;28;20054;-76
2021/01/27 06:42:48;;;;;;;1.55;0.95;;;;;;;1.22;86.95;99778.25;4992610;28;20054;-75
2021/01/27 06:45:53;;;;;;;2.05;1.20;;;;;;;1.24;86.67;99778.22;4996263;28;20050;-74
2021/01/27 06:48:57;;;;;;;2.15;1.25;;;;;;;1.30;85.91;99767.53;4994054;28;20137;-75
2021/01/27 06:51:43;;;;;;;1.08;0.90;;;;;;;1.34;85.64;99759.50;4996043;28;20046;-75
2021/01/27 06:54:31;;;;;;;3.20;1.10;;;;;;;1.34;85.88;99759.50;4995075;28;20076;-74
2021/01/27 06:57:12;;;;;;;1.42;1.13;;;;;;;1.46;84.91;99754.78;4996042;28;20396;-75
2021/01/27 06:59:57;;;;;;;3.17;1.33;;;;;;;1.51;84.64;99765.19;4996855;28;20057;-73
2021/01/27 07:02:23;;;;;;;2.08;1.10;;;;;;;1.53;83.65;99752.84;4997004;28;20042;-75
2021/01/27 07:05:07;;;;;;;4.00;1.15;;;;;;;1.57;83.28;99749.22;4996099;28;20101;-77
2021/01/27 07:07:56;;;;;;;2.47;1.10;;;;;;;1.57;83.11;99772.88;4995984;28;20065;-74
2021/01/27 07:10:41;;;;;;;1.25;0.98;;;;;;;1.61;82.64;99769.25;4995643;28;20495;-79
2021/01/27 07:13:47;;;;;;;1.20;1.10;;;;;;;1.51;82.40;99758.13;4996051;28;20395;-74
2021/01/27 07:16:23;;;;;;;1.73;1.20;;;;;;;1.64;82.52;99777.06;4995790;28;20267;-76
2021/01/27 07:19:37;;;;;;;3.60;1.13;;;;;;;1.67;82.74;99779.56;4995957;28;20124;-76
2021/01/27 07:22:42;;;;;;;2.42;1.10;;;;;;;1.65;82.42;99775.28;4993756;28;20054;-74
2021/01/27 07:25:15;;;;;;;3.60;1.20;;;;;;;1.70;82.72;99781.25;4995299;28;20092;-74
2021/01/27 07:27:54;;;;;;;1.20;1.10;;;;;;;1.58;83.09;99787.75;4995759;28;20380;-77
2021/01/27 07:30:26;;;;;;;2.10;1.05;;;;;;;1.75;83.77;99814.41;5027630;28;20054;-75
2021/01/27 07:32:56;;;;;;;2.80;1.25;;;;;;;1.69;84.04;99806.69;5001072;28;20050;-76
2021/01/27 07:35:22;;;;;;;1.80;1.05;;;;;;;1.60;84.47;99801.72;5014393;28;20049;-76
2021/01/27 07:38:12;;;;;;;2.05;0.95;;;;;;;1.66;84.74;99822.59;5015202;28;20053;-76
2021/01/27 07:40:45;;;;;;;1.67;1.02;;;;;;;1.63;84.87;99826.16;5001199;28;20086;-78
2021/01/27 07:43:19;;;;;;;3.67;1.15;;;;;;;1.64;85.57;99824.41;5008440;28;20057;-75
2021/01/27 07:45:53;;;;;;;3.15;1.20;;;;;;;1.61;85.84;99829.75;5012884;28;20050;-78
2021/01/27 07:48:59;;;;;;;1.38;1.02;;;;;;;1.61;86.83;99832.38;5007259;28;20049;-78
2021/01/27 07:51:57;;;;;;;3.60;1.13;;;;;;;1.57;88.23;99818.44;5011281;28;20047;-76
2021/01/27 07:55:11;;;;;;;1.98;1.10;;;;;;;1.38;90.35;99823.38;5000744;28;20055;-75
2021/01/27 07:57:48;;;;;;;2.33;1.17;;;;;;;1.20;91.77;99815.09;4972534;28;20065;-73
2021/01/27 08:00:21;;;;;;;1.73;1.20;;;;;;;1.14;92.73;99809.16;4998551;28;20042;-77
2021/01/27 08:03:09;;;;;;;6.57;1.30;;;;;;;1.18;92.86;99821.31;4999988;28;20065;-76
2021/01/27 08:05:39;;;;;;;2.15;1.55;;;;;;;1.06;93.99;99809.38;5008693;28;20124;-75
2021/01/27 08:08:11;;;;;;;3.90;1.42;;;;;;;1.03;93.83;99799.78;5007219;28;20325;-76
2021/01/27 08:10:38;;;;;;;2.13;1.67;;;;;;;0.99;94.87;99794.66;5009634;28;20049;-78
2021/01/27 08:13:18;;;;;;;2.38;1.67;;;;;;;1.04;94.40;99803.31;5008811;28;20076;-78
2021/01/27 08:16:02;;;;;;;2.60;1.60;;;;;;;1.06;94.25;99785.72;5006808;28;20054;-76
2021/01/27 08:18:29;;;;;;;3.15;2.58;;;;;;;1.01;94.43;99771.84;5001389;28;20081;-77
2021/01/27 08:21:25;;;;;;;3.10;2.00;;;;;;;1.02;94.25;99782.31;5008320;28;20050;-76
2021/01/27 08:23:52;;;;;;;2.30;1.40;;;;;;;1.03;94.24;99785.81;5008483;28;20057;-79
2021/01/27 08:26:43;;;;;;;2.33;1.35;;;;;;;1.02;94.45;99773.56;5013150;28;20058;-76
2021/01/27 08:29:12;;;;;;;1.35;1.20;;;;;;;1.01;94.21;99766.56;5008128;28;20127;-77
2021/01/27 08:31:39;;;;;;;1.88;1.50;;;;;;;1.05;94.50;99773.47;5006740;28;20042;-78
2021/01/27 08:34:05;;;;;;;4.38;1.38;;;;;;;1.08;94.72;99771.63;5014192;28;20049;-77
2021/01/27 08:36:31;;;;;;;3.05;1.27;;;;;;;1.13;94.40;99766.22;5000659;28;20054;-76
2021/01/27 08:38:58;;;;;;;1.35;1.13;;;;;;;1.13;94.16;99779.38;5008437;28;20061;-78
2021/01/27 08:41:55;;;;;;;3.05;1.00;;;;;;;1.18;93.91;99774.00;4998999;28;20070;-74
2021/01/27 08:44:22;;;;;;;2.03;1.33;;;;;;;1.14;94.07;99780.25;4999577;28;20436;-74
2021/01/27 08:47:35;;;;;;;4.13;1.50;;;;;;;1.12;94.12;99788.16;4997982;28;20062;-73
2021/01/27 08:50:03;;;;;;;1.67;1.27;;;;;;;1.06;94.47;99794.47;5029632;28;20403;-74
2021/01/27 08:52:29;;;;;;;2.40;1.50;;;;;;;1.09;93.96;99790.88;5000861;28;20046;-74
2021/01/27 08:54:55;;;;;;;6.18;1.60;;;;;;;1.04;93.82;99787.53;4996928;28;20058;-75
2021/01/27 08:57:25;;;;;;;1.38;1.27;;;;;;;1.06;93.95;99783.09;4998567;28;20050;-76
2021/01/27 09:00:37;;;;;;;2.00;1.60;;;;;;;1.07;94.10;99776.91;4998100;28;20354;-76
2021/01/27 09:03:03;;;;;;;3.72;1.30;;;;;;;1.11;93.88;99760.16;5014041;28;20519;-76
2021/01/27 09:05:39;;;;;;;1.70;1.60;;;;;;;1.29;93.83;99773.69;5018944;28;20069;-79
2021/01/27 09:08:11;;;;;;;6.35;1.67;;;;;;;1.40;93.51;99773.34;4998434;28;20066;-75
2021/01/27 09:10:44;;;;;;;2.10;1.23;;;;;;;1.38;93.72;99781.31;4997661;28;20065;-74
2021/01/27 09:13:23;;;;;;;2.42;1.38;;;;;;;1.35;93.40;99791.91;5001883;28;20057;-74
2021/01/27 09:15:53;;;;;;;2.95;1.55;;;;;;;1.39;93.74;99785.66;5005047;28;20395;-74
2021/01/27 09:18:20;;;;;;;2.37;1.47;;;;;;;1.41;94.06;99796.16;5006824;28;20053;-74
2021/01/27 09:20:47;;;;;;;1.88;1.58;;;;;;;1.29;93.65;99774.56;5008590;28;20053;-74
2021/01/27 09:23:17;;;;;;;1.95;1.40;;;;;;;1.31;93.75;99800.81;5005785;28;20045;-75
2021/01/27 09:25:49;;;;;;;1.50;1.40;;;;;;;1.23;94.57;99785.25;5005181;28;20042;-74
2021/01/27 09:28:24;;;;;;;3.38;1.60;;;;;;;1.32;94.56;99803.38;5002641;28;20046;-74
2021/01/27 09:30:53;;;;;;;1.77;1.35;;;;;;;1.22;94.52;99775.63;5005017;28;20051;-75
2021/01/27 09:33:39;;;;;;;2.35;1.45;;;;;;;1.38;95.08;99791.84;4997166;28;20443;-75
2021/01/27 09:36:18;;;;;;;3.72;1.70;;;;;;;1.41;94.54;99798.78;4997518;28;20105;-73
2021/01/27 09:38:44;;;;;;;4.05;1.42;;;;;;;1.40;94.74;99800.53;4996894;28;20057;-75
2021/01/27 09:41:14;;;;;;;1.77;1.50;;;;;;;1.43;94.58;99796.94;4996408;28;20105;-78
2021/01/27 09:43:44;;;;;;;2.75;1.50;;;;;;;1.42;94.99;99789.97;4996006;28;20388;-74
2021/01/27 09:46:17;;;;;;;1.50;1.38;;;;;;;1.47;94.88;99781.03;5013149;28;20450;-76
2021/01/27 09:48:44;;;;;;;2.42;1.60;;;;;;;1.46;94.40;99776.69;5005465;28;20055;-75
2021/01/27 09:51:15;;;;;;;1.40;1.30;;;;;;;1.37;94.38;99774.34;4996990;28;20089;-75
2021/01/27 09:53:44;;;;;;;1.55;1.45;;;;;;;1.47;94.85;99781.03;4995874;28;20054;-76
2021/01/27 09:56:16;;;;;;;1.88;1.50;;;;;;;1.57;93.97;99796.56;4999321;28;20454;-75
2021/01/27 09:58:43;;;;;;;1.98;1.25;;;;;;;1.52;94.21;99798.47;4997152;28;20050;-74
2021/01/27 10:01:18;;;;;;;3.13;1.58;;;;;;;1.66;94.72;99798.03;4998710;28;20042;-77
2021/01/27 10:04:14;;;;;;;1.80;1.40;;;;;;;1.66;94.47;99800.66;5015447;28;20054;-75
2021/01/27 10:06:49;;;;;;;1.98;1.27;;;;;;;1.72;94.46;99809.25;5016234;28;20046;-76
2021/01/27 10:09:33;;;;;;;1.40;1.30;;;;;;;1.40;94.61;99776.00;5016394;28;20428;-75
2021/01/27 10:12:00;;;;;;;1.70;1.20;;;;;;;1.63;94.74;99820.03;5016146;28;20050;-76
2021/01/27 10:14:30;;;;;;;2.33;1.38;;;;;;;1.65;95.36;99812.97;5010372;28;20066;-75
2021/01/27 10:16:59;;;;;;;1.98;1.45;;;;;;;1.69;95.64;99822.47;5003523;28;20054;-73
2021/01/27 10:19:36;;;;;;;2.22;1.30;;;;;;;1.71;94.96;99830.34;4993970;28;20046;-77
2021/01/27 10:22:06;;;;;;;3.17;1.10;;;;;;;1.70;94.79;99824.19;4996506;28;20050;-76
2021/01/27 10:25:11;;;;;;;1.42;1.20;;;;;;;1.74;94.97;99814.47;5003596;28;20060;-75
2021/01/27 10:27:41;;;;;;;4.72;1.60;;;;;;;1.71;94.95;99815.44;5010180;28;20148;-79
2021/01/27 10:30:16;;;;;;;5.57;1.50;;;;;;;1.76;94.89;99812.66;5002471;28;20056;-75
2021/01/27 10:32:45;;;;;;;2.92;1.75;;;;;;;1.65;95.58;99810.34;5004068;28;20050;-79
2021/01/27 10:35:26;;;;;;;2.22;1.50;;;;;;;1.71;95.77;99811.91;4994998;28;20058;-76
2021/01/27 10:38:14;;;;;;;2.33;1.50;;;;;;;1.78;95.35;99820.50;4994653;28;20057;-76
2021/01/27 10:41:09;;;;;;;2.10;1.42;;;;;;;1.78;95.28;99820.50;4994392;28;20062;-75
2021/01/27 10:43:36;;;;;;;2.28;1.70;;;;;;;1.79;95.66;99815.16;4994683;28;20051;-76
2021/01/27 10:46:27;;;;;;;2.80;1.63;;;;;;;1.75;95.55;99817.03;4995629;28;20053;-75
2021/01/27 10:48:54;;;;;;;2.53;1.52;;;;;;;1.86;95.77;99834.28;4995579;28;20062;-75
2021/01/27 10:51:22;;;;;;;2.13;1.73;;;;;;;1.84;95.11;99818.53;4995722;28;20046;-75
2021/01/27 10:53:48;;;;;;;3.40;1.95;;;;;;;1.88;95.32;99830.69;4995586;28;20059;-78
2021/01/27 10:56:17;;;;;;;3.95;1.90;;;;;;;1.88;95.59;99833.34;4993584;28;20500;-76
2021/01/27 10:58:43;;;;;;;3.70;1.58;;;;;;;1.90;95.52;99822.75;4988160;28;20409;-76
2021/01/27 11:01:10;;;;;;;1.95;1.70;;;;;;;1.98;95.21;99815.50;4998474;28;20057;-77
2021/01/27 11:03:36;;;;;;;2.13;1.60;;;;;;;2.03;95.14;99810.06;4996921;28;20050;-74
2021/01/27 11:06:03;;;;;;;2.58;2.00;;;;;;;2.01;94.94;99810.13;4995384;28;20051;-73
2021/01/27 11:08:32;;;;;;;4.28;1.80;;;;;;;2.05;95.51;99810.03;4995807;28;20057;-75
2021/01/27 11:11:00;;;;;;;3.00;1.80;;;;;;;2.13;94.87;99821.19;4996388;28;20057;-74
2021/01/27 11:13:27;;;;;;;2.65;1.63;;;;;;;2.15;94.61;99811.44;5000159;28;20054;-74
2021/01/27 11:15:54;;;;;;;2.45;1.77;;;;;;;2.15;94.94;99806.19;5004853;28;20050;-75
2021/01/27 11:18:20;;;;;;;2.65;1.95;;;;;;;2.17;94.74;99801.72;5013324;28;20119;-75
2021/01/27 11:20:48;;;;;;;2.58;1.95;;;;;;;2.26;94.93;99801.44;4991982;28;20073;-71
2021/01/27 11:23:20;;;;;;;2.30;2.10;;;;;;;2.26;95.16;99809.34;4995014;28;20061;-72
2021/01/27 11:25:52;;;;;;;2.63;2.10;;;;;;;2.23;95.18;99812.06;4994970;28;20143;-72
2021/01/27 11:28:18;;;;;;;2.60;2.22;;;;;;;2.17;94.91;99780.66;4994809;28;20062;-73
2021/01/27 11:30:44;;;;;;;3.97;2.25;;;;;;;2.35;94.83;99808.19;4994853;28;20383;-71
2021/01/27 11:33:14;;;;;;;3.65;1.73;;;;;;;2.30;94.84;99800.41;5002533;28;20054;-71
2021/01/27 11:35:41;;;;;;;5.15;2.20;;;;;;;2.32;95.22;99800.38;4995456;28;20046;-71
2021/01/27 11:38:07;;;;;;;2.97;2.33;;;;;;;2.37;95.62;99805.47;5006615;28;20444;-75
2021/01/27 11:40:34;;;;;;;2.42;2.15;;;;;;;2.38;95.16;99815.09;4995316;28;20117;-71
2021/01/27 11:43:00;;;;;;;3.15;2.15;;;;;;;2.40;94.76;99810.66;4995471;28;20101;-73
2021/01/27 11:45:26;;;;;;;3.33;2.88;;;;;;;2.28;95.65;99791.72;5000294;28;20062;-72
2021/01/27 11:47:52;;;;;;;4.45;2.53;;;;;;;2.27;95.55;99797.91;5005071;28;20061;-72
2021/01/27 11:50:22;;;;;;;3.75;2.58;;;;;;;2.31;95.66;99796.88;5006458;28;20125;-72
2021/01/27 11:52:49;;;;;;;5.80;2.90;;;;;;;2.38;95.80;99796.66;5008649;28;20060;-74
2021/01/27 11:55:17;;;;;;;9.13;3.20;;;;;;;2.41;95.82;99805.31;5002968;28;20383;-76
2021/01/27 11:57:44;;;;;;;4.50;2.67;;;;;;;2.40;95.91;99790.44;4995220;28;20196;-72
2021/01/27 12:00:13;;;;;;;3.47;2.40;;;;;;;2.35;96.08;99802.94;4985280;28;20065;-76
2021/01/27 12:02:39;;;;;;;4.85;2.50;;;;;;;2.38;95.53;99800.19;4986013;28;20108;-75
2021/01/27 12:05:07;;;;;;;8.27;2.58;;;;;;;2.38;95.55;99800.19;4994485;28;20065;-76
2021/01/27 12:07:33;;;;;;;4.25;2.53;;;;;;;2.43;95.96;99800.03;4982092;28;20057;-72
2021/01/27 12:09:59;;;;;;;4.43;2.90;;;;;;;2.32;95.56;99787.22;5001157;28;20073;-73
2021/01/27 12:12:25;;;;;;;7.40;2.65;;;;;;;2.37;95.79;99795.81;5002936;28;20066;-73
2021/01/27 12:14:51;;;;;;;7.45;3.13;;;;;;;2.40;96.02;99789.59;5014436;28;20062;-74